AirNav   Air Wisconsin pilot careers
 
 1528 users online  

I67 Cincinnati West Airport
Harrison, Ohio, USA

GOING TO HARRISON?


FAA INFORMATION EFFECTIVE 08 NOVEMBER 2018

Location

FAA Identifier: I67
Lat/Long: 39-15-33.4000N / 084-46-27.5000W
39-15.556667N / 084-46.458333W
39.2592778 / -84.7743056
(estimated)
Elevation: 584.1 ft. / 178.0 m (surveyed)
Variation: 05W (2010)
From city: 2 miles E of HARRISON, OH
Time zone: UTC -5 (UTC -4 during Daylight Saving Time)
Zip code: 45030

Airport Operations

Airport use: Open to the public
Activation date: 09/1945
Control tower: no
ARTCC: INDIANAPOLIS CENTER
FSS: DAYTON FLIGHT SERVICE STATION
NOTAMs facility: DAY (NOTAM-D service available)
Attendance: MON-SAT 0830-1800, ALL SUN 0900-1700
UNATNDD ALL MAJOR HOLS.
Wind indicator: lighted
Segmented circle: no
Lights: ACTVT MIRL RY 01/19-CTAF.
Beacon: white-green (lighted land airport)
Operates sunset to sunrise.

Airport Communications

CTAF/UNICOM: 123.0
WX AWOS-3PT: 118.15 (513-569-4964)
CINCINNATI APPROACH: 128.7
CINCINNATI DEPARTURE: 128.7
WX ASOS at HAO (13 nm NE): 121.425 (513-863-6137)
WX ASOS at CVG (14 nm S): PHONE 859-767-8210
WX AWOS-3PT at OXD (15 nm N): 118.625 (513-273-2032)
WX ASOS at LUK (19 nm SE): PHONE 513-321-6291

Nearby radio navigation aids

VOR radial/distance  VOR name  Freq  Var
CVGr351/15.0CINCINNATI VORTAC117.3004W
RIDr177/29.9RICHMOND VORTAC110.6003W

 
NDB name  Hdg/Dist  Freq  Var  ID
MADEIRA280/19.637904WMDE -- -.. .
HOOK FIELD231/20.923904WHKF .... -.- ..-.
CINCINNATI291/21.033504WLUK .-.. ..- -.-
BATESVILLE108/23.125405WHLB .... .-.. -...
SPORTYS297/28.224504WPWF .--. .-- ..-.

Airport Services

Fuel available: 100LL
FOR JET A AVBLTY CALL (513) 367-0231.
Parking: hangars and tiedowns
Airframe service: MAJOR
Powerplant service: MAJOR
Bottled oxygen: NONE
Bulk oxygen: NONE

Runway Information

Runway 1/19

Dimensions: 2808 x 60 ft. / 856 x 18 m
Surface: asphalt, in good condition
Runway edge lights: medium intensity
RUNWAY 1  RUNWAY 19
Latitude: 39-15.324843N39-15.787370N
Longitude: 084-46.459843W084-46.456903W
Elevation: 581.4 ft.580.7 ft.
Gradient: 0.1%0.1%
Traffic pattern: leftleft
Runway heading: 005 magnetic, 000 true185 magnetic, 180 true
Displaced threshold: 75 ft.219 ft.
Markings: nonprecision, in fair conditionnonprecision, in fair condition
Visual slope indicator: 2-light PAPI on left (3.00 degrees glide path)2-light PAPI on left (3.50 degrees glide path)
UNUSBL BYD 9 DEGS RIGHT AND LEFT OF CNTRLN.
Runway end identifier lights: nono
Touchdown point: yes, no lightsyes, no lights
Obstructions: 16 ft. road, 257 ft. from runway, 260 ft. both sides of centerline, 3:1 slope to clear
RY 01 20:1 TO DISPLACED THRESHOLD.
48 ft. tree, 460 ft. from runway, 140 ft. right of centerline, 5:1 slope to clear
RY 19, 10 FT BLDGS 180 FT FM DER 140 FT RIGHT.

Airport Ownership and Management from official FAA records

Ownership: Publicly-owned
Owner: CINCY ST TECH & COM COLLEGE
3520 CENTRAL PARKWAY
CINCINNATI, OH 45223
Phone 513-569-5786
Manager: WILL BERINGER
10004 WEST ROAD
HARRISON, OH 45030
Phone 513-367-5070

Airport Operational Statistics

Aircraft based on the field: 45
Single engine airplanes: 41
Multi engine airplanes: 4
    
Aircraft operations: avg 79/day *
91% local general aviation
9% transient general aviation
<1% air taxi
<1% military
* for 12-month period ending 12 May 2017

Instrument Procedures

NOTE: All procedures below are presented as PDF files. If you need a reader for these files, you should download the free Adobe Reader.

NOT FOR NAVIGATION. Please procure official charts for flight.
FAA instrument procedures published for use from 8 November 2018 at 0901Z to 6 December 2018 at 0900Z.

 
IAPs - Instrument Approach Procedures
RNAV (GPS) RWY 19   download (187KB)
VOR RWY 19   download (200KB)
NOTE: Special Take-Off Minimums/Departure Procedures apply   download (164KB)

Other nearby airports with instrument procedures:

KHAO - Butler County Regional Airport-Hogan Field (13 nm NE)
KCVG - Cincinnati/Northern Kentucky International Airport (14 nm S)
KOXD - Miami University Airport (15 nm N)
KLUK - Cincinnati Municipal Airport-Lunken Field (19 nm SE)
KMWO - Middletown Regional Airport/Hook Field (24 nm NE)
 
Loc | Ops | Rwys | IFR | FBO | Links
Com | Nav | Svcs | Stats | Notes


 
Area around I67 (Cincinnati West Airport)
 
Road maps at: MapQuest Bing Google
 
Aerial photo
WARNING: Photo may not be current or correct
Aerial photo of I67 (Cincinnati West Airport)
Photo courtesy of Harrison Social Flites Flying Club
Photo taken 08-Feb-2013
looking north.

Do you have a better or more recent aerial photo of Cincinnati West Airport that you would like to share? If so, please send us your photo.

 
Sectional chart

 
Airport distance calculator
Flying to Cincinnati West Airport? Find the distance to fly.

From to I67

Sunrise and sunset
Times for 15-Nov-2018
 Local
(UTC-5)
 Zulu
(UTC)
Morning civil twilight06:5511:55
Sunrise07:2412:24
Sunset17:2422:24
Evening civil twilight17:5322:53

Current date and time
Zulu (UTC)  15-Nov-2018 20:18:55
Local (UTC-5)  15-Nov-2018 15:18:55
 
METAR
KI67 150855Z AUTO 00000KT 4SM OVC007 00/M01 A3017 RMK AO1 P0003
KCVG 
14nm S 
152001Z 26006KT 4SM -SN BR OVC005 01/01 A2995 RMK AO2 P0000 T00110006 $
KHAO 
14nm NE 
151953Z AUTO 21003KT 6SM BR OVC006 02/01 A2998 RMK AO2 SLP158 T00170006
KOXD 
15nm N 
151613Z AUTO 00000KT 1 1/2SM BR OVC002 01/01 A3003 RMK AO2 T00050005
KLUK 
19nm SE 
151953Z 25008KT 6SM BR BKN010 OVC018 03/02 A2998 RMK AO2 RAB11E45 CIG 008V014 SLP157 P0000 T00280017
TAF
KCVG 
14nm S 
151724Z 1518/1624 18006KT 4SM BR VCSH OVC004 FM152100 23006KT 4SM -SNRA OVC008 FM160000 25010KT 3SM -SN OVC008 FM160300 24010KT P6SM OVC006 FM161400 23012G18KT P6SM BKN015 FM162000 25010KT P6SM OVC008
KLUK 
19nm SE 
151724Z 1518/1618 18006KT 4SM BR VCSH OVC004 FM152100 23006KT 4SM -SNRA OVC008 FM160000 25010KT 3SM -SN OVC008 FM160300 24010KT P6SM OVC006 FM161400 23012G18KT P6SM BKN015
NOTAMs
Click for the latest NOTAMs
NOTAMs are issued by the DoD/FAA and will open in a separate window not controlled by AirNav.

 

 
 

FBO, Fuel Providers, and Aircraft Ground Support

  
 Business Name 
 
 Contact 
 
 Services / Description 
 
Fuel Prices
 
Comments
  
Cincinnati West Airport 513-367-1201
[web site]
[email]

Like us on facebook
Airport management, Aviation fuel, Aircraft parking (ramp or tiedown), Passenger terminal and lounge, Pilot supplies, Rental cars, ...
 
Crew car   Enterprise Rent-A-Car  
 
More info about Cincinnati West Airport
EPIC
100LL
AS $5.20 
 Updated 07-Nov-2018
 
   1 read write
AS=Assisted/Self Service
Update Fuel Prices
 

Would you like to see your business listed on this page?

 If your business provides an interesting product or service to pilots, flight crews, aircraft, or users of the Cincinnati West Airport, you should consider listing it here.  To start the listing process, click on the button below
 
Add a business
 

Other Pages about Cincinnati West Airport

www.cincinnatistate.edu/...
 
Update a link
 
Copyright © AirNav, LLC. All rights reserved. Privacy Policy  Contact